This is the latest recevied weather packets stored in our database for station/object DL0GY-13. If no packets are shown the sender has not sent any weather packets the latest 10 day(s).
| Time | Temp. | Humidity | Pressure | Rain* | Wind** | Luminosity | Snow |
|---|---|---|---|---|---|---|---|
| 1777631433 | 28.33° C | 22% | 1025 hPa | 0 mm | - | - | - |
| 1777630833 | 27.22° C | 22% | 1025.1 hPa | 0 mm | - | - | - |
| 1777630234 | 27.22° C | 22% | 1025.4 hPa | 0 mm | - | - | - |
| 1777629634 | 26.67° C | 24% | 1025.5 hPa | 0 mm | - | - | - |
| 1777628433 | 26.67° C | 24% | 1025.7 hPa | 0 mm | - | - | - |
| 1777627834 | 27.78° C | 23% | 1025.8 hPa | 0 mm | - | - | - |
| 1777626634 | 26.67° C | 24% | 1026.1 hPa | 0 mm | - | - | - |
| 1777625434 | 25.56° C | 25% | 1026.1 hPa | 0 mm | - | - | - |
| 1777624833 | 25.56° C | 25% | 1026.3 hPa | 0 mm | - | - | - |
| 1777624234 | 26.67° C | 24% | 1026.2 hPa | 0 mm | - | - | - |
| 1777623034 | 27.22° C | 27% | 1026.4 hPa | 0 mm | - | - | - |
| 1777621834 | 24.44° C | 31% | 1026.3 hPa | 0 mm | - | - | - |
| 1777621234 | 23.89° C | 32% | 1026.4 hPa | 0 mm | - | - | - |
| 1777620033 | 21.67° C | 37% | 1026.5 hPa | 0 mm | - | - | - |
| 1777618834 | 19.44° C | 41% | 1026.7 hPa | 0 mm | - | - | - |
| 1777618234 | 18.33° C | 43% | 1026.7 hPa | 0 mm | - | - | - |
| 1777617634 | 16.67° C | 45% | 1026.6 hPa | 0 mm | - | - | - |
| 1777616434 | 15° C | 49% | 1026.7 hPa | 0 mm | - | - | - |
| 1777615833 | 14.44° C | 51% | 1026.6 hPa | 0 mm | - | - | - |
| 1777615234 | 13.89° C | 53% | 1026.8 hPa | 0 mm | - | - | - |
| 1777614634 | 13.33° C | 53% | 1026.8 hPa | 0 mm | - | - | - |
| 1777614034 | 13.33° C | 54% | 1026.8 hPa | 0 mm | - | - | - |
| 1777613434 | 13.33° C | 56% | 1026.8 hPa | 0 mm | - | - | - |
| 1777612834 | 12.78° C | 58% | 1026.9 hPa | 0 mm | - | - | - |
| 1777612234 | 12.22° C | 59% | 1026.6 hPa | 0 mm | - | - | - |
* Rain latest hour (hover to see other rain measurements)
** Current wind speed in m/s (hover to see current wind gust speed)